Time;durP1;ratioP1;P1;durP2;ratioP2;P2;SDS_P1;SDS_P2;PMS_P1;PMS_P2;Temp;Humidity;BMP_temperature;BMP_pressure;BME280_temperature;BME280_humidity;BME280_pressure;Samples;Min_cycle;Max_cycle;Signal;HPM_P1;HPM_P2
2020/02/18 00:02:59;;;;;;;1.12;1.02;;;;;;;19.92;41.44;101236.63;;;;-49
2020/02/18 00:05:59;;;;;;;0.82;0.82;;;;;;;19.90;41.41;101244.23;;;;-51
2020/02/18 00:08:59;;;;;;;1.01;0.93;;;;;;;19.89;41.41;101248.27;;;;-51
2020/02/18 00:11:59;;;;;;;0.84;0.84;;;;;;;19.88;41.40;101251.22;;;;-51
2020/02/18 00:14:59;;;;;;;0.91;0.91;;;;;;;19.86;41.41;101255.62;;;;-51
2020/02/18 00:17:59;;;;;;;0.83;0.83;;;;;;;19.84;41.39;101250.33;;;;-51
2020/02/18 00:20:59;;;;;;;0.91;0.91;;;;;;;19.83;41.43;101256.07;;;;-51
2020/02/18 00:23:59;;;;;;;0.83;0.83;;;;;;;19.81;41.40;101267.37;;;;-51
2020/02/18 00:26:59;;;;;;;0.79;0.79;;;;;;;19.80;41.40;101267.36;;;;-51
2020/02/18 00:29:59;;;;;;;0.91;0.89;;;;;;;19.79;41.44;101271.60;;;;-51
2020/02/18 00:32:59;;;;;;;1.01;0.90;;;;;;;19.77;41.41;101278.09;;;;-51
2020/02/18 00:35:59;;;;;;;0.93;0.93;;;;;;;19.75;41.41;101277.76;;;;-51
2020/02/18 00:38:59;;;;;;;0.90;0.90;;;;;;;19.74;41.43;101281.22;;;;-51
2020/02/18 00:41:59;;;;;;;0.90;0.90;;;;;;;19.72;41.44;101287.23;;;;-50
2020/02/18 00:44:59;;;;;;;0.90;0.90;;;;;;;19.71;41.44;101281.00;;;;-51
2020/02/18 00:47:59;;;;;;;0.97;0.96;;;;;;;19.69;41.45;101283.05;;;;-51
2020/02/18 00:50:59;;;;;;;1.11;1.02;;;;;;;19.69;41.46;101281.99;;;;-51
2020/02/18 00:53:59;;;;;;;0.91;0.91;;;;;;;19.67;41.47;101291.59;;;;-51
2020/02/18 00:56:59;;;;;;;1.13;1.00;;;;;;;19.66;41.44;101290.70;;;;-50
2020/02/18 00:59:59;;;;;;;0.81;0.81;;;;;;;19.65;41.47;101295.94;;;;-49
2020/02/18 01:02:59;;;;;;;1.01;1.00;;;;;;;19.63;41.44;101294.98;;;;-51
2020/02/18 01:06:04;;;;;;;0.88;0.88;;;;;;;19.62;41.47;101298.61;;;;-51
2020/02/18 01:12:23;;;;;;;0.87;0.87;;;;;;;19.59;41.45;101297.77;;;;-51
2020/02/18 01:15:12;;;;;;;1.33;0.95;;;;;;;19.57;41.50;101296.50;;;;-51
2020/02/18 01:17:59;;;;;;;0.92;0.88;;;;;;;19.56;41.50;101298.55;;;;-51
2020/02/18 01:20:59;;;;;;;0.91;0.91;;;;;;;19.54;41.51;101303.97;;;;-51
2020/02/18 01:23:59;;;;;;;0.95;0.89;;;;;;;19.53;41.53;101305.59;;;;-51
2020/02/18 01:26:59;;;;;;;0.87;0.87;;;;;;;19.53;41.55;101306.82;;;;-51
2020/02/18 01:29:59;;;;;;;0.91;0.91;;;;;;;19.52;41.53;101312.11;;;;-50
2020/02/18 01:32:59;;;;;;;0.84;0.84;;;;;;;19.51;41.52;101308.64;;;;-51
2020/02/18 01:35:59;;;;;;;0.90;0.90;;;;;;;19.49;41.55;101307.36;;;;-51
2020/02/18 01:38:59;;;;;;;0.91;0.91;;;;;;;19.48;41.58;101306.02;;;;-51
2020/02/18 01:41:59;;;;;;;0.90;0.90;;;;;;;19.47;41.54;101314.61;;;;-51
2020/02/18 01:44:59;;;;;;;0.91;0.91;;;;;;;19.45;41.61;101321.47;;;;-51
2020/02/18 01:47:59;;;;;;;1.07;0.99;;;;;;;19.44;41.58;101318.96;;;;-50
2020/02/18 01:50:59;;;;;;;0.82;0.82;;;;;;;19.43;41.58;101316.39;;;;-51
2020/02/18 01:53:59;;;;;;;0.90;0.90;;;;;;;19.42;41.55;101313.98;;;;-51
2020/02/18 01:56:59;;;;;;;0.92;0.88;;;;;;;19.40;41.60;101318.61;;;;-51
2020/02/18 01:59:59;;;;;;;1.05;1.00;;;;;;;19.39;41.61;101318.77;;;;-51
2020/02/18 02:02:59;;;;;;;1.08;0.85;;;;;;;19.39;41.62;101324.42;;;;-50
2020/02/18 02:05:59;;;;;;;0.80;0.80;;;;;;;19.38;41.61;101331.34;;;;-51
2020/02/18 02:08:59;;;;;;;0.89;0.84;;;;;;;19.35;41.58;101330.38;;;;-51
2020/02/18 02:11:59;;;;;;;0.90;0.90;;;;;;;19.36;41.61;101333.80;;;;-51
2020/02/18 02:14:59;;;;;;;0.88;0.81;;;;;;;19.34;41.59;101330.88;;;;-51
2020/02/18 02:17:59;;;;;;;0.89;0.89;;;;;;;19.32;41.60;101325.73;;;;-51
2020/02/18 02:20:59;;;;;;;1.15;0.93;;;;;;;19.32;41.61;101321.77;;;;-51
2020/02/18 02:23:59;;;;;;;0.97;0.97;;;;;;;19.31;41.60;101326.62;;;;-51
2020/02/18 02:26:59;;;;;;;0.97;0.96;;;;;;;19.31;41.61;101327.51;;;;-50
2020/02/18 02:29:59;;;;;;;0.82;0.82;;;;;;;19.29;41.61;101328.57;;;;-51
2020/02/18 02:32:59;;;;;;;0.95;0.90;;;;;;;19.29;41.58;101329.47;;;;-51
2020/02/18 02:35:59;;;;;;;1.01;0.85;;;;;;;19.27;41.62;101324.87;;;;-51
2020/02/18 02:38:59;;;;;;;0.93;0.93;;;;;;;19.27;41.61;101321.74;;;;-51
2020/02/18 02:41:59;;;;;;;1.25;0.91;;;;;;;19.25;41.62;101323.48;;;;-50
2020/02/18 02:44:59;;;;;;;1.10;1.00;;;;;;;19.25;41.64;101327.77;;;;-51
2020/02/18 02:47:59;;;;;;;0.90;0.90;;;;;;;19.24;41.65;101324.92;;;;-51
2020/02/18 02:50:59;;;;;;;0.82;0.80;;;;;;;19.22;41.63;101325.48;;;;-51
2020/02/18 02:53:59;;;;;;;0.89;0.89;;;;;;;19.22;41.60;101327.27;;;;-51
2020/02/18 02:56:59;;;;;;;1.00;1.00;;;;;;;19.21;41.60;101318.48;;;;-51
2020/02/18 03:00:01;;;;;;;0.84;0.83;;;;;;;19.20;41.63;101311.55;;;;-51
2020/02/18 03:02:59;;;;;;;0.99;0.90;;;;;;;19.19;41.63;101318.92;;;;-51
2020/02/18 03:06:07;;;;;;;0.95;0.88;;;;;;;19.18;41.63;101321.76;;;;-51
2020/02/18 03:09:07;;;;;;;1.12;0.99;;;;;;;19.18;41.62;101326.17;;;;-51
2020/02/18 03:13:06;;;;;;;0.93;0.90;;;;;;;19.17;41.66;101330.75;;;;-51
2020/02/18 03:17:44;;;;;;;0.90;0.90;;;;;;;19.16;41.66;101336.54;;;;-51
2020/02/18 03:21:00;;;;;;;0.88;0.88;;;;;;;19.14;41.65;101342.17;;;;-51
2020/02/18 03:24:17;;;;;;;0.80;0.80;;;;;;;19.13;41.69;101346.74;;;;-50
2020/02/18 03:26:59;;;;;;;1.06;1.00;;;;;;;19.14;41.68;101345.64;;;;-51
2020/02/18 03:29:59;;;;;;;0.91;0.87;;;;;;;19.12;41.69;101354.91;;;;-51
2020/02/18 03:32:59;;;;;;;1.09;0.90;;;;;;;19.11;41.71;101359.44;;;;-51
2020/02/18 03:35:59;;;;;;;0.90;0.90;;;;;;;19.10;41.69;101363.66;;;;-51
2020/02/18 03:38:59;;;;;;;0.93;0.92;;;;;;;19.08;41.73;101364.39;;;;-51
2020/02/18 03:41:59;;;;;;;0.97;0.97;;;;;;;19.09;41.68;101361.42;;;;-51
2020/02/18 03:44:59;;;;;;;0.79;0.79;;;;;;;19.07;41.70;101362.26;;;;-51
2020/02/18 03:47:59;;;;;;;0.94;0.94;;;;;;;19.07;41.74;101363.81;;;;-51
2020/02/18 03:50:59;;;;;;;0.85;0.85;;;;;;;19.06;41.71;101366.33;;;;-50
2020/02/18 03:53:59;;;;;;;0.97;0.89;;;;;;;19.05;41.71;101370.23;;;;-51
2020/02/18 03:56:59;;;;;;;0.90;0.90;;;;;;;19.05;41.74;101374.81;;;;-51
2020/02/18 03:59:59;;;;;;;1.05;1.00;;;;;;;19.05;41.72;101381.60;;;;-51
2020/02/18 04:02:59;;;;;;;1.15;0.91;;;;;;;19.04;41.72;101377.77;;;;-50
2020/02/18 04:05:59;;;;;;;1.10;1.00;;;;;;;19.05;41.75;101380.00;;;;-51
2020/02/18 04:08:59;;;;;;;0.97;0.93;;;;;;;19.05;41.75;101375.65;;;;-51
2020/02/18 04:11:59;;;;;;;1.31;0.89;;;;;;;19.05;41.73;101374.41;;;;-50
2020/02/18 04:14:59;;;;;;;1.08;0.99;;;;;;;19.07;41.73;101381.22;;;;-50
2020/02/18 04:17:59;;;;;;;0.85;0.85;;;;;;;19.07;41.77;101381.52;;;;-50
2020/02/18 04:20:59;;;;;;;0.97;0.87;;;;;;;19.09;41.72;101375.98;;;;-51
2020/02/18 04:23:59;;;;;;;0.82;0.82;;;;;;;19.13;41.70;101387.86;;;;-50
2020/02/18 04:26:59;;;;;;;0.92;0.91;;;;;;;19.15;41.63;101384.20;;;;-51
2020/02/18 04:29:59;;;;;;;0.80;0.80;;;;;;;19.18;41.62;101393.48;;;;-51
2020/02/18 04:32:59;;;;;;;0.87;0.87;;;;;;;19.21;41.58;101396.36;;;;-50
2020/02/18 04:35:59;;;;;;;0.80;0.80;;;;;;;19.26;41.64;101405.20;;;;-51
2020/02/18 04:38:59;;;;;;;0.99;0.99;;;;;;;19.30;41.68;101406.01;;;;-50
2020/02/18 04:41:59;;;;;;;1.10;0.98;;;;;;;19.34;41.46;101408.25;;;;-51
2020/02/18 04:45:06;;;;;;;0.88;0.88;;;;;;;19.36;41.63;101411.35;;;;-51
2020/02/18 04:51:00;;;;;;;0.80;0.80;;;;;;;19.45;41.58;101419.77;;;;-51
2020/02/18 04:53:59;;;;;;;0.89;0.87;;;;;;;19.48;41.66;101417.81;;;;-51
2020/02/18 04:56:59;;;;;;;1.68;1.05;;;;;;;19.52;41.66;101418.84;;;;-50
2020/02/18 04:59:59;;;;;;;1.03;0.91;;;;;;;19.55;41.63;101420.86;;;;-50
2020/02/18 05:02:59;;;;;;;0.87;0.87;;;;;;;19.59;41.75;101429.25;;;;-51
2020/02/18 05:05:59;;;;;;;0.83;0.83;;;;;;;19.61;41.65;101427.20;;;;-51
2020/02/18 05:08:59;;;;;;;0.90;0.90;;;;;;;19.63;41.68;101428.50;;;;-51
2020/02/18 05:11:59;;;;;;;1.34;0.94;;;;;;;19.66;41.68;101439.06;;;;-51
2020/02/18 05:14:59;;;;;;;1.06;0.99;;;;;;;19.70;41.68;101437.69;;;;-51
2020/02/18 05:17:59;;;;;;;0.89;0.89;;;;;;;19.73;41.70;101444.52;;;;-51
2020/02/18 05:20:59;;;;;;;0.89;0.89;;;;;;;19.76;41.63;101445.64;;;;-51
2020/02/18 05:23:59;;;;;;;0.81;0.81;;;;;;;19.79;41.70;101440.90;;;;-51
2020/02/18 05:26:59;;;;;;;0.95;0.93;;;;;;;19.82;41.63;101449.19;;;;-51
2020/02/18 05:29:59;;;;;;;1.03;0.93;;;;;;;19.83;41.69;101442.16;;;;-51
2020/02/18 05:32:59;;;;;;;0.81;0.81;;;;;;;19.86;41.67;101444.80;;;;-51
2020/02/18 05:35:59;;;;;;;0.98;0.92;;;;;;;19.89;41.65;101447.32;;;;-51
2020/02/18 05:38:59;;;;;;;1.20;1.09;;;;;;;19.92;41.62;101448.00;;;;-51
2020/02/18 05:41:59;;;;;;;1.19;1.09;;;;;;;19.93;41.58;101452.81;;;;-51
2020/02/18 05:44:59;;;;;;;1.00;1.00;;;;;;;19.95;41.57;101457.63;;;;-51
2020/02/18 05:47:59;;;;;;;0.85;0.85;;;;;;;19.95;41.51;101464.37;;;;-51
2020/02/18 05:50:59;;;;;;;0.93;0.89;;;;;;;19.96;41.53;101457.95;;;;-51
2020/02/18 05:53:59;;;;;;;1.03;0.93;;;;;;;19.97;41.51;101464.49;;;;-51
2020/02/18 05:56:59;;;;;;;0.90;0.90;;;;;;;19.99;41.47;101469.73;;;;-51
2020/02/18 05:59:59;;;;;;;1.10;1.00;;;;;;;20.00;41.37;101472.41;;;;-51
2020/02/18 06:02:59;;;;;;;1.04;0.97;;;;;;;20.00;41.39;101473.76;;;;-51
2020/02/18 06:05:59;;;;;;;0.97;0.92;;;;;;;20.02;41.38;101474.83;;;;-51
2020/02/18 06:08:59;;;;;;;0.80;0.80;;;;;;;20.04;41.33;101479.98;;;;-51
2020/02/18 06:11:59;;;;;;;1.20;1.10;;;;;;;20.04;41.32;101483.38;;;;-51
2020/02/18 06:15:00;;;;;;;0.90;0.90;;;;;;;20.05;41.28;101485.36;;;;-51
2020/02/18 06:18:09;;;;;;;0.93;0.93;;;;;;;20.07;41.27;101488.48;;;;-51
2020/02/18 06:21:04;;;;;;;0.92;0.91;;;;;;;20.09;41.24;101493.53;;;;-51
2020/02/18 06:23:59;;;;;;;1.03;0.96;;;;;;;20.10;41.22;101499.05;;;;-49
2020/02/18 06:26:59;;;;;;;1.03;1.00;;;;;;;20.13;41.21;101502.42;;;;-51
2020/02/18 06:29:59;;;;;;;1.36;1.03;;;;;;;20.13;41.23;101511.15;;;;-51
2020/02/18 06:33:04;;;;;;;0.90;0.90;;;;;;;20.15;41.22;101512.27;;;;-51
2020/02/18 06:36:05;;;;;;;1.09;1.02;;;;;;;20.17;41.14;101522.74;;;;-51
2020/02/18 06:38:59;;;;;;;1.60;1.00;;;;;;;20.19;41.18;101517.76;;;;-51
2020/02/18 06:41:59;;;;;;;0.98;0.95;;;;;;;20.20;41.16;101524.98;;;;-51
2020/02/18 06:44:59;;;;;;;0.90;0.90;;;;;;;20.22;41.11;101521.12;;;;-51
2020/02/18 06:47:59;;;;;;;0.84;0.83;;;;;;;20.23;41.10;101530.02;;;;-51
2020/02/18 06:50:59;;;;;;;1.01;1.00;;;;;;;20.25;41.08;101528.98;;;;-51
2020/02/18 06:53:59;;;;;;;1.22;1.12;;;;;;;20.26;41.08;101531.48;;;;-51
2020/02/18 06:56:59;;;;;;;1.08;0.98;;;;;;;20.27;41.09;101531.42;;;;-51
2020/02/18 06:59:59;;;;;;;1.17;1.08;;;;;;;20.28;41.07;101522.48;;;;-51
2020/02/18 07:02:59;;;;;;;1.06;1.02;;;;;;;20.32;41.00;101534.25;;;;-51
2020/02/18 07:05:59;;;;;;;1.11;1.01;;;;;;;20.31;41.02;101537.25;;;;-51
2020/02/18 07:09:04;;;;;;;0.89;0.89;;;;;;;20.33;41.00;101551.70;;;;-51
2020/02/18 07:12:04;;;;;;;1.10;1.00;;;;;;;20.34;40.99;101555.06;;;;-51
2020/02/18 07:14:59;;;;;;;1.00;1.00;;;;;;;20.34;40.97;101559.59;;;;-51
2020/02/18 07:17:59;;;;;;;1.41;1.00;;;;;;;20.35;40.92;101563.49;;;;-51
2020/02/18 07:20:59;;;;;;;1.02;0.93;;;;;;;20.36;40.91;101563.23;;;;-51
2020/02/18 07:23:59;;;;;;;1.18;1.09;;;;;;;20.39;40.86;101563.73;;;;-51
2020/02/18 07:26:59;;;;;;;1.41;0.92;;;;;;;20.37;40.88;101570.84;;;;-51
2020/02/18 07:29:59;;;;;;;1.16;1.05;;;;;;;20.37;40.85;101566.64;;;;-51
2020/02/18 07:32:59;;;;;;;1.24;1.02;;;;;;;20.40;40.83;101580.45;;;;-51
2020/02/18 07:35:59;;;;;;;1.39;1.02;;;;;;;20.40;40.83;101578.90;;;;-51
2020/02/18 07:38:59;;;;;;;1.11;1.01;;;;;;;20.40;40.81;101589.42;;;;-51
2020/02/18 07:41:59;;;;;;;1.20;1.10;;;;;;;20.40;40.78;101590.54;;;;-51
2020/02/18 07:44:59;;;;;;;1.21;1.11;;;;;;;20.42;40.77;101583.42;;;;-51
2020/02/18 07:47:59;;;;;;;0.93;0.91;;;;;;;20.43;40.78;101587.68;;;;-51
2020/02/18 07:50:59;;;;;;;1.17;1.09;;;;;;;20.47;40.68;101583.38;;;;-51
2020/02/18 07:53:59;;;;;;;0.88;0.88;;;;;;;20.47;40.71;101587.75;;;;-51
2020/02/18 07:56:59;;;;;;;1.38;1.00;;;;;;;20.47;40.69;101592.63;;;;-51
2020/02/18 07:59:59;;;;;;;1.33;1.01;;;;;;;20.49;40.67;101594.15;;;;-51
2020/02/18 08:02:59;;;;;;;0.98;0.95;;;;;;;20.50;40.67;101604.50;;;;-51
2020/02/18 08:05:59;;;;;;;1.11;1.00;;;;;;;20.50;40.63;101603.04;;;;-51
2020/02/18 08:08:59;;;;;;;1.13;1.05;;;;;;;20.52;40.68;101601.27;;;;-50
2020/02/18 08:11:59;;;;;;;3.10;1.05;;;;;;;20.54;40.81;101587.33;;;;-51
2020/02/18 08:14:59;;;;;;;2.71;0.97;;;;;;;20.55;41.33;101579.50;;;;-52
2020/02/18 08:17:59;;;;;;;3.51;1.09;;;;;;;20.56;41.33;101578.27;;;;-52
2020/02/18 08:20:59;;;;;;;4.01;1.03;;;;;;;20.58;41.11;101583.87;;;;-52
2020/02/18 08:23:59;;;;;;;1.56;1.02;;;;;;;20.59;40.90;101586.17;;;;-53
2020/02/18 08:26:59;;;;;;;1.39;1.05;;;;;;;20.61;41.02;101588.47;;;;-54
2020/02/18 08:29:59;;;;;;;1.17;0.93;;;;;;;20.63;41.29;101596.03;;;;-53
2020/02/18 08:32:59;;;;;;;1.37;1.08;;;;;;;20.67;41.36;101601.48;;;;-54
2020/02/18 08:35:59;;;;;;;2.69;1.38;;;;;;;20.69;40.70;101606.96;;;;-52
2020/02/18 08:38:59;;;;;;;3.97;1.03;;;;;;;20.73;41.34;101604.00;;;;-52
2020/02/18 08:41:59;;;;;;;3.07;1.05;;;;;;;20.72;40.66;101602.27;;;;-53
2020/02/18 08:44:59;;;;;;;1.75;1.05;;;;;;;20.72;40.40;101605.63;;;;-57
2020/02/18 08:47:59;;;;;;;1.13;1.03;;;;;;;20.73;40.65;101606.52;;;;-52
2020/02/18 08:50:59;;;;;;;2.54;1.17;;;;;;;20.73;40.41;101613.73;;;;-53
2020/02/18 08:53:59;;;;;;;2.41;1.23;;;;;;;20.70;40.10;101608.29;;;;-52
2020/02/18 08:56:59;;;;;;;1.71;1.17;;;;;;;20.69;40.20;101618.04;;;;-53
2020/02/18 08:59:59;;;;;;;1.57;1.20;;;;;;;20.69;40.24;101622.90;;;;-53
2020/02/18 09:02:59;;;;;;;2.07;1.21;;;;;;;20.67;39.97;101623.74;;;;-53
2020/02/18 09:05:59;;;;;;;1.11;1.00;;;;;;;20.66;39.98;101619.14;;;;-53
2020/02/18 09:08:59;;;;;;;1.10;1.00;;;;;;;20.65;40.02;101618.13;;;;-53
2020/02/18 09:11:59;;;;;;;1.83;1.01;;;;;;;20.63;40.44;101615.00;;;;-50
2020/02/18 09:14:59;;;;;;;2.65;1.35;;;;;;;20.66;40.82;101622.73;;;;-54
2020/02/18 09:18:10;;;;;;;2.55;1.39;;;;;;;20.65;40.51;101627.55;;;;-52
2020/02/18 09:20:59;;;;;;;2.42;1.34;;;;;;;20.66;41.45;101630.96;;;;-51
2020/02/18 09:23:59;;;;;;;3.95;1.19;;;;;;;20.65;41.36;101640.24;;;;-52
2020/02/18 09:26:59;;;;;;;5.59;1.37;;;;;;;20.67;41.42;101648.59;;;;-53
2020/02/18 09:29:59;;;;;;;2.03;1.20;;;;;;;20.67;41.24;101646.22;;;;-60
2020/02/18 09:32:59;;;;;;;6.50;1.43;;;;;;;20.66;41.18;101652.72;;;;-59
2020/02/18 09:35:59;;;;;;;3.54;1.24;;;;;;;20.65;41.06;101657.36;;;;-56
2020/02/18 09:38:59;;;;;;;2.27;1.31;;;;;;;20.65;40.89;101652.22;;;;-53
2020/02/18 09:41:59;;;;;;;3.71;1.39;;;;;;;20.62;41.23;101657.36;;;;-52
2020/02/18 09:44:59;;;;;;;4.09;1.41;;;;;;;20.63;41.42;101660.31;;;;-52
2020/02/18 09:47:59;;;;;;;5.28;1.38;;;;;;;20.62;41.53;101654.38;;;;-57
2020/02/18 09:50:59;;;;;;;2.36;1.19;;;;;;;20.61;41.43;101656.28;;;;-49
2020/02/18 09:53:59;;;;;;;2.96;1.29;;;;;;;20.60;41.50;101655.32;;;;-49
2020/02/18 09:56:59;;;;;;;1.69;1.12;;;;;;;20.60;41.56;101653.59;;;;-55
2020/02/18 09:59:59;;;;;;;3.91;1.39;;;;;;;20.60;41.68;101654.55;;;;-51
2020/02/18 10:02:59;;;;;;;3.30;1.33;;;;;;;20.58;41.76;101653.75;;;;-50
2020/02/18 10:05:59;;;;;;;2.27;1.21;;;;;;;20.59;41.46;101659.24;;;;-52
2020/02/18 10:08:59;;;;;;;5.44;1.38;;;;;;;20.57;41.60;101659.58;;;;-51
2020/02/18 10:11:59;;;;;;;2.62;1.31;;;;;;;20.56;41.51;101655.49;;;;-48
2020/02/18 10:14:59;;;;;;;6.04;1.43;;;;;;;20.56;41.50;101649.94;;;;-54
2020/02/18 10:17:59;;;;;;;1.59;1.29;;;;;;;20.56;41.42;101654.81;;;;-63
2020/02/18 10:20:59;;;;;;;2.97;1.19;;;;;;;20.55;41.26;101660.06;;;;-56
2020/02/18 10:23:59;;;;;;;2.27;1.29;;;;;;;20.54;41.16;101665.81;;;;-53
2020/02/18 10:26:59;;;;;;;3.01;1.17;;;;;;;20.54;41.00;101667.84;;;;-60
2020/02/18 10:29:59;;;;;;;2.77;1.23;;;;;;;20.54;41.03;101668.28;;;;-55
2020/02/18 10:32:59;;;;;;;1.63;1.29;;;;;;;20.54;40.98;101668.68;;;;-56
2020/02/18 10:35:59;;;;;;;2.65;1.43;;;;;;;20.53;41.12;101669.23;;;;-54
2020/02/18 10:38:59;;;;;;;2.43;1.39;;;;;;;20.53;41.42;101660.23;;;;-63
2020/02/18 10:42:05;;;;;;;2.37;1.38;;;;;;;20.53;41.36;101670.80;;;;-59
2020/02/18 10:44:59;;;;;;;2.09;1.33;;;;;;;20.53;41.37;101668.06;;;;-59
2020/02/18 10:47:59;;;;;;;1.69;1.12;;;;;;;20.52;41.29;101669.45;;;;-60
2020/02/18 10:50:59;;;;;;;2.97;1.34;;;;;;;20.53;41.12;101668.10;;;;-55
2020/02/18 10:53:59;;;;;;;4.42;1.36;;;;;;;20.52;41.13;101668.27;;;;-53
2020/02/18 10:56:59;;;;;;;2.67;1.20;;;;;;;20.53;41.22;101667.72;;;;-56
2020/02/18 10:59:59;;;;;;;2.71;1.39;;;;;;;20.53;41.20;101663.69;;;;-52
2020/02/18 11:02:59;;;;;;;5.10;1.50;;;;;;;20.53;40.80;101665.31;;;;-54
2020/02/18 11:05:59;;;;;;;6.41;1.31;;;;;;;20.51;40.97;101655.62;;;;-51
2020/02/18 11:08:59;;;;;;;3.03;1.27;;;;;;;20.52;40.83;101656.97;;;;-51
2020/02/18 11:20:03;;;;;;;2.11;1.26;;;;;;;20.50;40.66;101628.88;;;;-51
2020/02/18 11:22:59;;;;;;;2.85;1.30;;;;;;;20.50;40.61;101626.98;;;;-51
2020/02/18 11:25:59;;;;;;;4.69;1.49;;;;;;;20.49;40.51;101624.86;;;;-55
2020/02/18 11:28:59;;;;;;;5.03;1.37;;;;;;;20.51;40.48;101636.78;;;;-56
2020/02/18 11:31:59;;;;;;;1.75;1.33;;;;;;;20.50;40.50;101628.66;;;;-54
2020/02/18 11:34:59;;;;;;;3.87;1.41;;;;;;;20.47;40.45;101634.47;;;;-58
2020/02/18 11:37:59;;;;;;;2.66;1.31;;;;;;;20.46;40.38;101628.92;;;;-53
2020/02/18 11:40:59;;;;;;;3.05;1.30;;;;;;;20.48;40.89;101629.09;;;;-61
2020/02/18 11:43:59;;;;;;;3.85;1.47;;;;;;;20.49;40.71;101627.98;;;;-51
2020/02/18 11:47:07;;;;;;;2.81;1.38;;;;;;;20.50;40.59;101628.50;;;;-51
2020/02/18 11:49:59;;;;;;;3.15;1.41;;;;;;;20.49;40.52;101630.34;;;;-51
2020/02/18 11:52:59;;;;;;;3.39;1.53;;;;;;;20.48;40.49;101634.36;;;;-51
2020/02/18 11:55:59;;;;;;;1.47;1.22;;;;;;;20.48;40.51;101631.52;;;;-51
2020/02/18 11:58:59;;;;;;;2.25;1.45;;;;;;;20.48;40.47;101625.47;;;;-48
2020/02/18 12:01:59;;;;;;;3.13;1.57;;;;;;;20.48;40.44;101618.53;;;;-51
2020/02/18 12:04:59;;;;;;;2.83;1.39;;;;;;;20.47;40.42;101625.95;;;;-52
2020/02/18 12:07:59;;;;;;;2.68;1.47;;;;;;;20.46;40.39;101617.07;;;;-52
2020/02/18 12:10:59;;;;;;;3.28;1.42;;;;;;;20.46;40.37;101610.75;;;;-52
2020/02/18 12:13:59;;;;;;;1.51;1.27;;;;;;;20.45;40.38;101606.16;;;;-51
2020/02/18 12:16:59;;;;;;;2.15;1.31;;;;;;;20.45;40.35;101601.47;;;;-51
2020/02/18 12:19:59;;;;;;;3.18;1.47;;;;;;;20.45;40.35;101590.15;;;;-52
2020/02/18 12:23:17;;;;;;;2.55;1.43;;;;;;;20.44;40.33;101592.56;;;;-52
2020/02/18 12:25:59;;;;;;;3.36;1.60;;;;;;;20.43;40.31;101585.52;;;;-51
2020/02/18 12:28:59;;;;;;;1.86;1.40;;;;;;;20.43;40.33;101576.51;;;;-52
2020/02/18 12:31:59;;;;;;;1.85;1.47;;;;;;;20.43;40.30;101573.33;;;;-51
2020/02/18 12:34:59;;;;;;;1.31;1.18;;;;;;;20.42;40.33;101577.67;;;;-52
2020/02/18 12:37:59;;;;;;;1.99;1.37;;;;;;;20.41;40.32;101567.84;;;;-51
2020/02/18 12:40:59;;;;;;;3.61;1.58;;;;;;;20.41;40.95;101572.08;;;;-49
2020/02/18 12:43:59;;;;;;;1.93;1.22;;;;;;;20.42;41.37;101574.10;;;;-54
2020/02/18 12:46:59;;;;;;;1.55;1.30;;;;;;;20.42;41.56;101571.02;;;;-50
2020/02/18 12:49:59;;;;;;;3.37;1.65;;;;;;;20.43;40.92;101569.39;;;;-53
2020/02/18 12:52:59;;;;;;;4.85;1.49;;;;;;;20.45;41.03;101560.69;;;;-55
2020/02/18 12:55:59;;;;;;;3.12;1.50;;;;;;;20.44;41.23;101560.13;;;;-53
2020/02/18 12:58:59;;;;;;;3.99;1.75;;;;;;;20.44;41.37;101562.31;;;;-51
2020/02/18 13:01:59;;;;;;;2.25;1.45;;;;;;;20.44;41.59;101560.84;;;;-56
2020/02/18 13:04:59;;;;;;;2.02;1.36;;;;;;;20.45;41.54;101560.28;;;;-51
2020/02/18 13:08:05;;;;;;;2.38;1.39;;;;;;;20.46;41.53;101559.33;;;;-52
2020/02/18 13:11:03;;;;;;;2.19;1.40;;;;;;;20.46;41.50;101558.23;;;;-57
2020/02/18 13:14:05;;;;;;;2.91;1.38;;;;;;;20.47;41.33;101552.41;;;;-56
2020/02/18 13:17:20;;;;;;;3.05;1.47;;;;;;;20.47;41.26;101556.31;;;;-58
2020/02/18 13:20:07;;;;;;;2.75;1.40;;;;;;;20.47;41.32;101557.16;;;;-54
2020/02/18 13:23:21;;;;;;;2.45;1.44;;;;;;;20.47;41.36;101547.59;;;;-51
2020/02/18 13:32:45;;;;;;;2.65;1.53;;;;;;;20.49;41.41;101551.23;;;;-51
2020/02/18 13:35:05;;;;;;;3.40;1.57;;;;;;;20.50;41.52;101546.81;;;;-51
2020/02/18 13:38:02;;;;;;;2.73;1.45;;;;;;;20.51;41.47;101542.11;;;;-53
2020/02/18 13:40:59;;;;;;;3.65;1.53;;;;;;;20.52;41.44;101540.56;;;;-50
2020/02/18 13:43:59;;;;;;;2.01;1.31;;;;;;;20.53;41.52;101539.00;;;;-55
2020/02/18 13:46:59;;;;;;;1.84;1.44;;;;;;;20.54;41.40;101537.92;;;;-54
2020/02/18 13:49:59;;;;;;;2.75;1.45;;;;;;;20.55;41.42;101537.03;;;;-54
2020/02/18 13:52:59;;;;;;;2.25;1.40;;;;;;;20.55;41.35;101545.66;;;;-53
2020/02/18 13:55:59;;;;;;;1.86;1.40;;;;;;;20.55;41.14;101533.52;;;;-56
2020/02/18 13:58:59;;;;;;;2.52;1.44;;;;;;;20.55;41.19;101529.66;;;;-58
2020/02/18 14:01:59;;;;;;;3.09;1.44;;;;;;;20.56;41.08;101530.78;;;;-55
2020/02/18 14:04:59;;;;;;;2.00;1.40;;;;;;;20.57;41.10;101523.72;;;;-51
2020/02/18 14:07:59;;;;;;;2.23;1.48;;;;;;;20.57;41.02;101524.56;;;;-51
2020/02/18 14:10:59;;;;;;;2.77;1.36;;;;;;;20.57;40.91;101520.48;;;;-51
2020/02/18 14:13:59;;;;;;;3.18;1.33;;;;;;;20.56;40.83;101520.98;;;;-51
2020/02/18 14:16:59;;;;;;;2.26;1.40;;;;;;;20.55;40.75;101520.81;;;;-51
2020/02/18 14:19:59;;;;;;;2.46;1.43;;;;;;;20.53;40.83;101514.77;;;;-52
2020/02/18 14:23:09;;;;;;;5.65;1.47;;;;;;;20.53;40.27;101510.97;;;;-54
2020/02/18 14:25:59;;;;;;;3.72;1.54;;;;;;;20.53;40.28;101512.14;;;;-53
2020/02/18 14:28:59;;;;;;;2.67;1.55;;;;;;;20.52;40.33;101516.68;;;;-54
2020/02/18 14:31:59;;;;;;;3.80;1.53;;;;;;;20.51;40.34;101514.55;;;;-53
2020/02/18 14:34:59;;;;;;;3.09;1.62;;;;;;;20.51;40.30;101506.83;;;;-54
2020/02/18 14:37:59;;;;;;;3.73;1.47;;;;;;;20.50;40.30;101505.66;;;;-54
2020/02/18 14:40:59;;;;;;;2.17;1.35;;;;;;;20.49;40.22;101509.46;;;;-53
2020/02/18 14:43:59;;;;;;;2.45;1.49;;;;;;;20.48;40.22;101507.54;;;;-53
2020/02/18 14:46:59;;;;;;;3.35;1.30;;;;;;;20.47;40.19;101506.38;;;;-54
2020/02/18 14:49:59;;;;;;;1.62;1.39;;;;;;;20.47;40.20;101505.87;;;;-54
2020/02/18 14:52:59;;;;;;;1.76;1.33;;;;;;;20.46;40.16;101498.42;;;;-52
2020/02/18 14:55:59;;;;;;;5.03;1.33;;;;;;;20.46;40.14;101499.42;;;;-52
2020/02/18 14:58:59;;;;;;;2.75;1.45;;;;;;;20.45;40.13;101501.72;;;;-52
2020/02/18 15:01:59;;;;;;;1.89;1.33;;;;;;;20.44;40.11;101503.84;;;;-54
2020/02/18 15:04:59;;;;;;;2.12;1.43;;;;;;;20.44;40.11;101505.09;;;;-54
2020/02/18 15:07:59;;;;;;;2.08;1.41;;;;;;;20.43;40.09;101503.85;;;;-54
2020/02/18 15:10:59;;;;;;;1.34;1.21;;;;;;;20.42;40.08;101498.36;;;;-54
2020/02/18 15:13:59;;;;;;;2.79;1.32;;;;;;;20.41;40.08;101486.90;;;;-53
2020/02/18 15:16:59;;;;;;;2.04;1.37;;;;;;;20.42;40.04;101487.11;;;;-53
2020/02/18 15:19:59;;;;;;;2.67;1.33;;;;;;;20.39;40.09;101496.02;;;;-53
2020/02/18 15:28:59;;;;;;;3.27;1.51;;;;;;;20.34;39.13;101495.72;;;;-51
2020/02/18 15:32:02;;;;;;;3.93;1.57;;;;;;;20.35;39.73;101497.06;;;;-51
2020/02/18 15:35:13;;;;;;;4.53;1.50;;;;;;;20.37;39.99;101496.23;;;;-52
2020/02/18 15:38:03;;;;;;;3.69;1.49;;;;;;;20.39;40.05;101490.63;;;;-51
2020/02/18 15:40:59;;;;;;;7.16;1.73;;;;;;;20.39;39.91;101485.72;;;;-52
2020/02/18 15:44:14;;;;;;;2.19;1.39;;;;;;;20.39;39.89;101491.59;;;;-52
2020/02/18 15:46:59;;;;;;;2.22;1.40;;;;;;;20.40;39.88;101487.69;;;;-51
2020/02/18 15:49:59;;;;;;;2.90;1.68;;;;;;;20.35;39.64;101476.93;;;;-54
2020/02/18 15:52:59;;;;;;;24.52;3.29;;;;;;;20.34;39.15;101475.03;;;;-53
2020/02/18 15:55:59;;;;;;;37.71;4.89;;;;;;;20.33;38.86;101471.00;;;;-52
2020/02/18 15:58:59;;;;;;;25.09;4.08;;;;;;;20.30;38.58;101474.39;;;;-51
2020/02/18 16:01:59;;;;;;;23.75;3.51;;;;;;;20.31;38.52;101470.66;;;;-58
2020/02/18 16:04:59;;;;;;;14.34;2.97;;;;;;;20.33;39.07;101465.74;;;;-50
2020/02/18 16:07:59;;;;;;;14.09;2.86;;;;;;;20.36;39.55;101464.29;;;;-57
2020/02/18 16:10:59;;;;;;;11.49;2.56;;;;;;;20.39;39.79;101471.11;;;;-60
2020/02/18 16:13:59;;;;;;;9.76;2.37;;;;;;;20.40;39.89;101465.93;;;;-53
2020/02/18 16:16:59;;;;;;;10.43;2.67;;;;;;;20.41;39.87;101467.54;;;;-53
2020/02/18 16:19:59;;;;;;;9.34;2.36;;;;;;;20.42;39.93;101463.41;;;;-57
2020/02/18 16:22:59;;;;;;;11.00;2.45;;;;;;;20.44;40.02;101466.09;;;;-58
2020/02/18 16:25:59;;;;;;;9.42;2.84;;;;;;;20.45;39.98;101459.50;;;;-48
2020/02/18 16:28:59;;;;;;;12.07;2.45;;;;;;;20.46;40.12;101458.66;;;;-48
2020/02/18 16:31:59;;;;;;;9.03;2.33;;;;;;;20.48;40.12;101459.73;;;;-52
2020/02/18 16:34:59;;;;;;;9.39;2.31;;;;;;;20.48;40.32;101460.61;;;;-50
2020/02/18 16:37:59;;;;;;;8.82;2.16;;;;;;;20.50;40.24;101462.58;;;;-51
2020/02/18 16:40:59;;;;;;;6.18;2.39;;;;;;;20.50;40.11;101462.58;;;;-51
2020/02/18 16:43:59;;;;;;;8.01;2.33;;;;;;;20.52;40.35;101464.13;;;;-53
2020/02/18 16:46:59;;;;;;;8.47;2.29;;;;;;;20.53;40.52;101461.84;;;;-50
2020/02/18 16:49:59;;;;;;;7.31;2.17;;;;;;;20.55;40.53;101464.42;;;;-51
2020/02/18 16:52:59;;;;;;;5.59;2.09;;;;;;;20.55;40.51;101466.05;;;;-57
2020/02/18 16:55:59;;;;;;;6.67;2.11;;;;;;;20.56;40.46;101466.34;;;;-58
2020/02/18 16:58:59;;;;;;;4.87;1.97;;;;;;;20.58;40.51;101467.89;;;;-57
2020/02/18 17:01:59;;;;;;;5.07;1.98;;;;;;;20.57;40.50;101466.39;;;;-50
2020/02/18 17:04:59;;;;;;;5.71;2.06;;;;;;;20.58;40.53;101467.28;;;;-50
2020/02/18 17:07:59;;;;;;;6.24;1.94;;;;;;;20.58;40.48;101464.87;;;;-55
2020/02/18 17:11:16;;;;;;;5.55;2.09;;;;;;;20.59;40.55;101454.69;;;;-53